createdAt,value
2022-08-21T05:52:37.758Z,101071.31
2022-08-21T05:55:05.661Z,101072.91
2022-08-21T05:57:32.537Z,101072.78
2022-08-21T05:59:59.757Z,101064.53
2022-08-21T06:02:26.749Z,101071.63
2022-08-21T06:04:53.669Z,101068.94
2022-08-21T06:07:20.725Z,101069.81
2022-08-21T06:09:47.776Z,101074.22
2022-08-21T06:12:14.776Z,101071.38
2022-08-21T06:15:02.569Z,101061.28
2022-08-21T06:17:49.485Z,101069.41
2022-08-21T06:20:36.542Z,101062.25
2022-08-21T06:23:23.944Z,101064.25
2022-08-21T06:26:21.185Z,101060.41
2022-08-21T06:29:08.124Z,101065.69
2022-08-21T06:31:55.207Z,101057.72
2022-08-21T06:34:42.634Z,101055.75
2022-08-21T06:37:30.049Z,101056.56
2022-08-21T06:40:17.234Z,101051.03
2022-08-21T06:43:15.097Z,101051.91
2022-08-21T06:46:02.677Z,101030.09
2022-08-21T06:48:49.774Z,101046.63
2022-08-21T06:51:36.750Z,101041.22
2022-08-21T06:54:23.790Z,101041.09
2022-08-21T06:57:10.961Z,101041.09
2022-08-21T06:59:57.956Z,101039.25
2022-08-21T07:02:45.032Z,101039.13
2022-08-21T07:05:32.057Z,101019.56
2022-08-21T07:08:19.685Z,101035.28
2022-08-21T07:11:08.393Z,101027.31
2022-08-21T07:13:55.434Z,101034.19
2022-08-21T07:16:42.806Z,101037.59
2022-08-21T07:19:30.162Z,101032.34
2022-08-21T07:22:21.065Z,101028.94
2022-08-21T07:25:07.991Z,101027.78
2022-08-21T07:27:55.080Z,101025.09
2022-08-21T07:30:42.260Z,101011.94
2022-08-21T07:33:29.330Z,101017.13
2022-08-21T07:36:16.499Z,101016.97
2022-08-21T07:39:03.469Z,101017.97
2022-08-21T07:41:51.053Z,101022.53
2022-08-21T07:44:38.472Z,101014.28
2022-08-21T07:47:05.794Z,101023.09
2022-08-21T07:49:32.993Z,101016.84
2022-08-21T07:52:00.753Z,101010.44
2022-08-21T07:54:33.988Z,101005.69
2022-08-21T07:57:02.824Z,101014.88
2022-08-21T07:59:30.241Z,101014.72
2022-08-21T08:01:57.683Z,101015.69
2022-08-21T08:04:26.614Z,101009.72
2022-08-21T08:06:54.076Z,101014.88
2022-08-21T08:09:21.050Z,101012.28
2022-08-21T08:12:08.222Z,101015.28
2022-08-21T08:14:55.125Z,101009.25
2022-08-21T08:17:42.230Z,101004.25
2022-08-21T08:20:31.893Z,101000.81
2022-08-21T08:23:18.944Z,101001.81
2022-08-21T08:26:05.877Z,101000.97
2022-08-21T08:28:54.077Z,100992.13
2022-08-21T08:31:40.982Z,100999.41
2022-08-21T08:34:28.105Z,100994.13
2022-08-21T08:37:15.026Z,100984.28
2022-08-21T08:40:03.431Z,100985.28
2022-08-21T08:42:57.193Z,100965.06
2022-08-21T08:45:45.070Z,100993.41
2022-08-21T08:48:35.389Z,100994.25
2022-08-21T08:51:06.196Z,100972.88
2022-08-21T08:53:41.062Z,100989.84
2022-08-21T08:56:08.460Z,100989.28
2022-08-21T08:58:40.676Z,100984.69
2022-08-21T09:01:18.536Z,100976.16
2022-08-21T09:03:51.224Z,100990.09
2022-08-21T09:06:21.320Z,100987.28
2022-08-21T09:08:55.917Z,100989.13
2022-08-21T09:11:56.577Z,100990.97
2022-08-21T09:14:57.785Z,100990.25
2022-08-21T09:17:40.359Z,100981.16
2022-08-21T09:20:37.893Z,100963.50
2022-08-21T09:23:13.828Z,100979.28
2022-08-21T09:25:54.013Z,100976.16
2022-08-21T09:28:21.264Z,100991.09
2022-08-21T09:30:48.340Z,100974.16
2022-08-21T09:33:17.019Z,100983.28
2022-08-21T09:35:58.888Z,100981.56
2022-08-21T09:38:38.891Z,100978.88
2022-08-21T09:41:09.558Z,100977.88
2022-08-21T09:43:38.719Z,100966.88
2022-08-21T09:46:13.707Z,100978.88
2022-08-21T09:48:47.437Z,100978.88
2022-08-21T09:51:37.952Z,100981.72
2022-08-21T09:54:08.371Z,100983.56
2022-08-21T09:56:53.902Z,100983.69
2022-08-21T09:59:35.720Z,100985.66
2022-08-21T10:02:23.878Z,100981.25
2022-08-21T10:04:53.796Z,100981.25
2022-08-21T10:07:23.952Z,100972.00
2022-08-21T10:10:09.576Z,100985.53
2022-08-21T10:12:59.929Z,100976.44
2022-08-21T10:15:52.231Z,100985.25
2022-08-21T10:18:49.272Z,100976.03
2022-08-21T10:21:28.757Z,100982.13
2022-08-21T10:24:30.843Z,100976.47
2022-08-21T10:27:16.757Z,100982.72
2022-08-21T10:30:08.104Z,100981.72
2022-08-21T10:32:41.200Z,100989.69
2022-08-21T10:35:23.317Z,100981.44
2022-08-21T10:38:03.162Z,100983.03
2022-08-21T10:40:58.544Z,100976.50
2022-08-21T10:43:58.501Z,100970.09
2022-08-21T10:47:11.681Z,100971.69
2022-08-21T10:50:27.440Z,100965.00
2022-08-21T10:53:21.981Z,100972.03
2022-08-21T10:56:22.189Z,100969.31
2022-08-21T10:59:43.633Z,100968.91
2022-08-21T11:02:47.265Z,100966.88
2022-08-21T11:05:50.122Z,100964.31
2022-08-21T11:08:52.586Z,100962.34
2022-08-21T11:11:59.106Z,100968.47
2022-08-21T11:15:28.998Z,100964.03
2022-08-21T11:18:38.082Z,100964.03
2022-08-21T11:21:48.001Z,100960.50
2022-08-21T11:24:45.665Z,100960.50
2022-08-21T11:27:42.421Z,100960.38
2022-08-21T11:30:30.244Z,100965.63
2022-08-21T11:33:38.660Z,100960.22
2022-08-21T11:36:31.438Z,100949.84
2022-08-21T11:39:23.233Z,100960.91
2022-08-21T11:42:35.993Z,100968.91
2022-08-21T11:45:34.869Z,100964.50
2022-08-21T11:49:00.059Z,100964.50
2022-08-21T11:52:18.426Z,100963.06
2022-08-21T11:55:15.965Z,100982.00
2022-08-21T11:58:42.099Z,100981.28
2022-08-21T12:01:42.475Z,100977.28
2022-08-21T12:04:46.942Z,100970.28
2022-08-21T12:07:50.026Z,100972.16
2022-08-21T12:10:43.232Z,100976.66
2022-08-21T12:13:47.422Z,100974.09
2022-08-21T12:16:48.961Z,100975.22
2022-08-21T12:19:41.880Z,100970.09
2022-08-21T12:22:13.065Z,100966.56
2022-08-21T12:25:04.681Z,100961.16
2022-08-21T12:28:07.177Z,100968.38
2022-08-21T12:31:01.437Z,100970.22
2022-08-21T12:33:58.554Z,100973.94
2022-08-21T12:37:04.909Z,100974.94
2022-08-21T12:39:34.574Z,100972.94
2022-08-21T12:42:16.147Z,100969.25
2022-08-21T12:45:01.338Z,100963.25
2022-08-21T12:47:37.476Z,100958.72
2022-08-21T12:50:13.118Z,100961.41
2022-08-21T12:53:29.609Z,100962.13
2022-08-21T12:56:02.294Z,100968.38
2022-08-21T12:58:29.774Z,100950.16
2022-08-21T13:01:14.466Z,100945.03
2022-08-21T13:03:42.869Z,100943.19
2022-08-21T13:06:17.538Z,100950.59
2022-08-21T13:08:47.439Z,100947.91
2022-08-21T13:11:32.634Z,100946.31
2022-08-21T13:14:04.663Z,100931.66
2022-08-21T13:16:32.801Z,100946.44
2022-08-21T13:19:07.656Z,100943.75
2022-08-21T13:21:44.517Z,100951.03
2022-08-21T13:24:39.094Z,100952.00
2022-08-21T13:27:04.768Z,100953.88
2022-08-21T13:29:38.526Z,100956.84
2022-08-21T13:32:08.090Z,100955.13
2022-08-21T13:34:37.769Z,100953.13
2022-08-21T13:37:12.512Z,100952.13
2022-08-21T13:39:39.707Z,100956.72
2022-08-21T13:42:12.935Z,100948.75
2022-08-21T13:44:45.671Z,100928.47
2022-08-21T13:47:15.920Z,100949.16
2022-08-21T13:49:49.061Z,100942.16
2022-08-21T13:52:25.189Z,100954.84
2022-08-21T13:55:13.466Z,100947.69
2022-08-21T13:57:40.480Z,100951.25
2022-08-21T14:00:31.896Z,100946.28
2022-08-21T14:03:10.578Z,100942.25
2022-08-21T14:05:44.229Z,100945.22
2022-08-21T14:08:30.304Z,100935.69
2022-08-21T14:10:58.721Z,100939.41
2022-08-21T14:13:41.193Z,100934.41
2022-08-21T14:16:23.393Z,100942.66
2022-08-21T14:19:04.066Z,100933.09
2022-08-21T14:21:35.905Z,100913.56
2022-08-21T14:24:08.199Z,100932.81
2022-08-21T14:26:45.088Z,100923.25
2022-08-21T14:29:15.955Z,100925.22
2022-08-21T14:31:44.137Z,100928.91
2022-08-21T14:34:19.531Z,100929.03
2022-08-21T14:36:48.026Z,100929.91
2022-08-21T14:39:14.948Z,100930.88
2022-08-21T14:41:43.853Z,100905.09
2022-08-21T14:44:11.448Z,100920.47
2022-08-21T14:46:45.845Z,100895.56
2022-08-21T14:49:28.561Z,100912.53
2022-08-21T14:51:58.844Z,100894.94
2022-08-21T14:54:31.685Z,100920.63
2022-08-21T14:57:07.220Z,100925.19
2022-08-21T14:59:55.619Z,100934.25
2022-08-21T15:02:44.972Z,100938.81
2022-08-21T15:05:15.437Z,100926.69
2022-08-21T15:08:11.261Z,100949.03
2022-08-21T15:11:11.446Z,100943.88
2022-08-21T15:13:58.933Z,100941.56
2022-08-21T15:16:47.497Z,100940.81
2022-08-21T15:19:34.472Z,100932.16
2022-08-21T15:22:28.080Z,100932.03
2022-08-21T15:25:15.521Z,100929.34
2022-08-21T15:28:02.661Z,100934.72
2022-08-21T15:30:39.371Z,100925.31
2022-08-21T15:33:27.170Z,100932.41
2022-08-21T15:36:14.176Z,100932.38
2022-08-21T15:39:01.093Z,100942.91
2022-08-21T15:41:48.125Z,100941.16
2022-08-21T15:44:36.086Z,100942.28
2022-08-21T15:47:23.229Z,100944.25
2022-08-21T15:50:10.385Z,100941.56
2022-08-21T15:52:37.405Z,100944.25
2022-08-21T15:55:06.533Z,100942.44
2022-08-21T15:57:35.776Z,100899.38
2022-08-21T16:00:14.600Z,100909.53
2022-08-21T16:02:45.607Z,100942.56
2022-08-21T16:05:13.561Z,100942.94
2022-08-21T16:07:41.033Z,100948.34
2022-08-21T16:10:08.929Z,100942.94
2022-08-21T16:12:41.902Z,100935.84
2022-08-21T16:15:11.755Z,100938.56
2022-08-21T16:17:49.306Z,100946.78
2022-08-21T16:20:25.540Z,100938.94
2022-08-21T16:22:54.494Z,100930.38
2022-08-21T16:25:22.238Z,100927.47
2022-08-21T16:27:56.202Z,100935.66
2022-08-21T16:30:27.437Z,100938.09
2022-08-21T16:32:54.989Z,100931.13
2022-08-21T16:35:22.977Z,100931.97
2022-08-21T16:37:53.132Z,100939.22
2022-08-21T16:40:23.377Z,100915.56
2022-08-21T16:42:50.992Z,100921.16
2022-08-21T16:45:21.419Z,100919.47
2022-08-21T16:47:48.425Z,100926.00
2022-08-21T16:50:22.553Z,100925.25
2022-08-21T16:52:50.036Z,100937.00
2022-08-21T16:55:17.682Z,100943.66
2022-08-21T16:57:44.978Z,100917.88
2022-08-21T17:00:13.305Z,100947.63
2022-08-21T17:02:45.748Z,100950.44
2022-08-21T17:05:14.100Z,100940.63
2022-08-21T17:07:42.832Z,100938.91
2022-08-21T17:10:12.559Z,100940.75
2022-08-21T17:12:42.637Z,100952.53
2022-08-21T17:15:21.538Z,100952.06
2022-08-21T17:17:49.549Z,100953.31
2022-08-21T17:20:17.536Z,100958.97
2022-08-21T17:22:44.576Z,100953.84
2022-08-21T17:25:11.730Z,100952.34
2022-08-21T17:27:39.969Z,100953.75
2022-08-21T17:30:08.257Z,100945.56
2022-08-21T17:32:35.317Z,100956.34
2022-08-21T17:35:02.633Z,100950.38
2022-08-21T17:37:29.645Z,100948.41
2022-08-21T17:39:57.590Z,100948.97
2022-08-21T17:42:25.324Z,100950.22
2022-08-21T17:45:12.945Z,100952.19
2022-08-21T17:47:59.896Z,100939.38
2022-08-21T17:50:46.897Z,100947.06
2022-08-21T17:53:33.794Z,100957.97
2022-08-21T17:56:21.439Z,100953.97
2022-08-21T17:59:10.633Z,100949.81
2022-08-21T18:02:01.787Z,100956.28
2022-08-21T18:04:50.553Z,100945.63
2022-08-21T18:07:41.252Z,100925.34
2022-08-21T18:10:31.629Z,100955.09
2022-08-21T18:13:21.737Z,100945.91
2022-08-21T18:16:10.749Z,100951.16
2022-08-21T18:19:02.630Z,100959.34
2022-08-21T18:21:51.276Z,100916.81
2022-08-21T18:24:38.504Z,100949.09
2022-08-21T18:27:29.685Z,100933.06
2022-08-21T18:30:19.178Z,100915.19
2022-08-21T18:33:06.670Z,100919.84
2022-08-21T18:35:53.825Z,100927.06
2022-08-21T18:38:41.894Z,100928.03
2022-08-21T18:41:29.410Z,100932.72
2022-08-21T18:44:16.518Z,100931.97
2022-08-21T18:47:09.169Z,100929.53
2022-08-21T18:49:56.041Z,100948.50
2022-08-21T18:52:52.486Z,100941.63
2022-08-21T18:55:42.130Z,100907.97
2022-08-21T18:58:29.802Z,100933.91
2022-08-21T19:01:16.855Z,100934.03
2022-08-21T19:04:04.752Z,100926.19
2022-08-21T19:06:51.744Z,100935.16
2022-08-21T19:09:40.077Z,100931.59
2022-08-21T19:12:29.554Z,100927.31
2022-08-21T19:15:17.421Z,100931.72
2022-08-21T19:18:06.830Z,100932.56
2022-08-21T19:20:55.642Z,100929.03
2022-08-21T19:23:45.048Z,100926.81
2022-08-21T19:26:32.177Z,100928.19
2022-08-21T19:29:35.220Z,100920.00
2022-08-21T19:32:26.838Z,100915.44
2022-08-21T19:35:14.351Z,100931.59
2022-08-21T19:38:02.031Z,100929.03
2022-08-21T19:40:49.211Z,100931.59
2022-08-21T19:43:36.602Z,100921.69
2022-08-21T19:46:23.637Z,100932.44
2022-08-21T19:49:13.533Z,100918.00
2022-08-21T19:52:01.969Z,100911.78
2022-08-21T19:54:59.956Z,100902.72
2022-08-21T19:57:47.064Z,100912.38
2022-08-21T20:00:35.791Z,100876.06
2022-08-21T20:03:22.719Z,100914.13
2022-08-21T20:06:09.777Z,100903.47
2022-08-21T20:08:56.728Z,100903.34
2022-08-21T20:11:59.633Z,100904.44
2022-08-21T20:14:49.543Z,100906.28
2022-08-21T20:17:38.989Z,100897.84
2022-08-21T20:20:26.650Z,100897.34
2022-08-21T20:23:18.557Z,100908.09
2022-08-21T20:26:18.428Z,100903.59
2022-08-21T20:29:07.172Z,100891.84
2022-08-21T20:31:54.215Z,100899.03
2022-08-21T20:37:58.834Z,100898.91
2022-08-21T20:40:46.748Z,100898.91
2022-08-21T20:43:34.653Z,100895.28
2022-08-21T20:46:22.696Z,100896.09
2022-08-21T20:49:09.934Z,100884.50
2022-08-21T20:52:05.560Z,100875.94
2022-08-21T20:55:09.401Z,100885.84
2022-08-21T20:58:36.039Z,100891.97
2022-08-21T21:01:08.369Z,100890.00
2022-08-21T21:03:42.336Z,100890.72
2022-08-21T21:06:19.132Z,100898.78
2022-08-21T21:08:52.511Z,100888.03
2022-08-21T21:11:42.885Z,100889.88
2022-08-21T21:14:15.524Z,100898.66
2022-08-21T21:16:52.179Z,100895.03
2022-08-21T21:19:37.204Z,100893.28
2022-08-21T21:22:14.972Z,100892.31
2022-08-21T21:24:56.370Z,100883.63
2022-08-21T21:27:29.675Z,100858.41
2022-08-21T21:30:05.388Z,100889.25
2022-08-21T21:32:32.480Z,100879.31
2022-08-21T21:35:04.141Z,100876.38
2022-08-21T21:37:39.589Z,100883.38
2022-08-21T21:40:48.208Z,100881.38
2022-08-21T21:43:30.421Z,100882.25
2022-08-21T21:46:07.109Z,100883.94
2022-08-21T21:49:23.465Z,100877.88
2022-08-21T21:52:57.058Z,100872.34
2022-08-21T21:55:55.324Z,100871.22
2022-08-21T21:58:34.532Z,100876.63
2022-08-21T22:01:16.726Z,100870.38
2022-08-21T22:03:49.548Z,100877.34
2022-08-21T22:06:29.723Z,100868.78
2022-08-21T22:09:19.198Z,100883.44
2022-08-21T22:11:58.506Z,100879.78
2022-08-21T22:14:36.533Z,100872.34
2022-08-21T22:17:29.149Z,100864.25
2022-08-21T22:20:13.981Z,100872.34
2022-08-21T22:22:44.072Z,100870.34
2022-08-21T22:25:21.686Z,100867.78
2022-08-21T22:27:58.353Z,100866.69
2022-08-21T22:30:48.069Z,100875.59
2022-08-21T22:33:20.149Z,100853.25
2022-08-21T22:35:51.582Z,100865.56
2022-08-21T22:38:34.077Z,100873.66
2022-08-21T22:41:12.374Z,100869.00
2022-08-21T22:43:55.096Z,100873.41
2022-08-21T22:46:52.232Z,100867.75
2022-08-21T22:49:31.832Z,100870.19
2022-08-21T22:52:19.783Z,100871.88
2022-08-21T22:54:53.181Z,100871.88
2022-08-21T22:57:30.276Z,100866.63
2022-08-21T23:00:06.716Z,100866.50
2022-08-21T23:02:57.129Z,100858.69
2022-08-21T23:05:33.337Z,100868.94
2022-08-21T23:08:34.580Z,100858.03
2022-08-21T23:11:15.143Z,100870.41
2022-08-21T23:13:46.661Z,100873.13
2022-08-21T23:16:28.808Z,100874.81
2022-08-21T23:19:34.405Z,100829.31
2022-08-21T23:22:44.026Z,100854.00
2022-08-21T23:25:52.514Z,100853.00
2022-08-21T23:28:19.633Z,100848.47
2022-08-21T23:31:25.176Z,100851.16
2022-08-21T23:37:51.588Z,100842.97
2022-08-21T23:40:51.191Z,100852.88
2022-08-21T23:44:05.276Z,100844.91
2022-08-21T23:46:45.589Z,100850.31
2022-08-21T23:49:22.051Z,100847.59
2022-08-21T23:52:11.145Z,100840.78
2022-08-21T23:54:51.304Z,100839.41
2022-08-21T23:58:01.040Z,100844.78
